Time;durP1;ratioP1;P1;durP2;ratioP2;P2;SDS_P1;SDS_P2;PMS_P1;PMS_P2;Temp;Humidity;BMP_temperature;BMP_pressure;BME280_temperature;BME280_humidity;BME280_pressure;Samples;Min_cycle;Max_cycle;Signal;HPM_P1;HPM_P2
2023/03/23 00:00:58;;;;;;;1.52;0.50;;;;;;;;;;5008467;28;20430;-82
2023/03/23 00:03:28;;;;;;;0.40;0.40;;;;;;;;;;5007424;28;20466;-81
2023/03/23 00:05:59;;;;;;;4.05;0.80;;;;;;;;;;4990020;28;20491;-81
2023/03/23 00:08:27;;;;;;;0.88;0.70;;;;;;;;;;5005342;28;20065;-82
2023/03/23 00:10:57;;;;;;;2.70;1.02;;;;;;;;;;4987795;28;20421;-81
2023/03/23 00:13:24;;;;;;;1.30;0.50;;;;;;;;;;4987639;28;20073;-79
2023/03/23 00:15:52;;;;;;;1.50;0.65;;;;;;;;;;4989704;28;20226;-81
2023/03/23 00:18:22;;;;;;;1.45;0.60;;;;;;;;;;4987540;28;20050;-80
2023/03/23 00:20:49;;;;;;;0.65;0.50;;;;;;;;;;4989035;28;20049;-81
2023/03/23 00:23:19;;;;;;;1.30;0.60;;;;;;;;;;4988365;28;20050;-81
2023/03/23 00:25:48;;;;;;;6.78;0.98;;;;;;;;;;4989818;28;20045;-81
2023/03/23 00:28:17;;;;;;;1.25;0.68;;;;;;;;;;4987520;28;20045;-81
2023/03/23 00:30:44;;;;;;;0.93;0.93;;;;;;;;;;5004533;28;20054;-81
2023/03/23 00:33:13;;;;;;;1.40;0.80;;;;;;;;;;4986045;28;20132;-80
2023/03/23 00:35:41;;;;;;;0.82;0.68;;;;;;;;;;4984609;28;20060;-81
2023/03/23 00:38:09;;;;;;;1.02;0.70;;;;;;;;;;4989344;28;20050;-81
2023/03/23 00:40:36;;;;;;;3.53;0.52;;;;;;;;;;4987350;28;21169;-81
2023/03/23 00:43:06;;;;;;;1.88;0.73;;;;;;;;;;4988285;28;20046;-81
2023/03/23 00:45:34;;;;;;;0.52;0.52;;;;;;;;;;4987156;28;20058;-81
2023/03/23 00:48:04;;;;;;;1.85;0.82;;;;;;;;;;5004937;28;20058;-80
2023/03/23 00:50:32;;;;;;;0.85;0.52;;;;;;;;;;4989682;28;20050;-80
2023/03/23 00:52:59;;;;;;;1.13;0.60;;;;;;;;;;5006316;28;20045;-81
2023/03/23 00:55:27;;;;;;;1.00;0.90;;;;;;;;;;4983944;28;20061;-81
2023/03/23 00:57:54;;;;;;;4.38;0.95;;;;;;;;;;5006021;28;20096;-81
2023/03/23 01:00:22;;;;;;;0.70;0.60;;;;;;;;;;4987547;28;20048;-82
2023/03/23 01:02:52;;;;;;;1.02;0.60;;;;;;;;;;4986932;28;20110;-81
2023/03/23 01:05:19;;;;;;;1.70;0.90;;;;;;;;;;4989102;28;20403;-81
2023/03/23 01:07:48;;;;;;;0.95;0.60;;;;;;;;;;4988357;28;20155;-82
2023/03/23 01:10:17;;;;;;;0.85;0.60;;;;;;;;;;4985493;28;20058;-80
2023/03/23 01:12:45;;;;;;;2.92;0.93;;;;;;;;;;4987148;28;20131;-80
2023/03/23 01:15:17;;;;;;;1.10;0.75;;;;;;;;;;4985208;28;20054;-80
2023/03/23 01:17:44;;;;;;;0.93;0.50;;;;;;;;;;5003306;28;20052;-81
2023/03/23 01:20:14;;;;;;;0.63;0.50;;;;;;;;;;4987348;28;20625;-80
2023/03/23 01:22:42;;;;;;;11.30;1.08;;;;;;;;;;5005465;28;20046;-81
2023/03/23 01:25:10;;;;;;;2.35;0.50;;;;;;;;;;4985941;28;20064;-81
2023/03/23 01:27:37;;;;;;;0.60;0.57;;;;;;;;;;4986976;28;20111;-80
2023/03/23 01:30:05;;;;;;;2.65;0.65;;;;;;;;;;4987038;28;20054;-81
2023/03/23 01:32:32;;;;;;;0.65;0.30;;;;;;;;;;4986451;28;20061;-81
2023/03/23 01:35:00;;;;;;;1.10;0.50;;;;;;;;;;4987225;28;20045;-82
2023/03/23 01:37:28;;;;;;;0.75;0.47;;;;;;;;;;4984491;28;20526;-81
2023/03/23 01:39:56;;;;;;;0.60;0.50;;;;;;;;;;4983660;28;20077;-80
2023/03/23 01:42:24;;;;;;;2.53;0.52;;;;;;;;;;4986516;28;20046;-81
2023/03/23 01:45:10;;;;;;;1.02;0.63;;;;;;;;;;4987522;28;20050;-80
2023/03/23 01:47:38;;;;;;;2.42;0.70;;;;;;;;;;4985428;28;20076;-80
2023/03/23 01:50:05;;;;;;;2.60;1.10;;;;;;;;;;5003190;28;20057;-81
2023/03/23 01:52:36;;;;;;;1.73;0.80;;;;;;;;;;4984528;28;20056;-80
2023/03/23 01:55:03;;;;;;;3.83;0.70;;;;;;;;;;4983803;28;20072;-81
2023/03/23 01:57:31;;;;;;;0.55;0.50;;;;;;;;;;4985276;28;20074;-81
2023/03/23 01:59:59;;;;;;;7.22;0.50;;;;;;;;;;4984342;28;20073;-80
2023/03/23 02:02:27;;;;;;;0.73;0.40;;;;;;;;;;5019442;23;20053;-66
2023/03/23 02:04:57;;;;;;;1.02;0.57;;;;;;;;;;5006629;28;20045;-64
2023/03/23 02:07:25;;;;;;;4.38;0.73;;;;;;;;;;4995142;28;20038;-66
2023/03/23 02:09:53;;;;;;;0.93;0.63;;;;;;;;;;4998124;28;20153;-66
2023/03/23 02:12:21;;;;;;;1.00;0.70;;;;;;;;;;4998639;28;20046;-67
2023/03/23 02:14:48;;;;;;;2.05;0.30;;;;;;;;;;4998445;28;20612;-67
2023/03/23 02:17:19;;;;;;;1.15;0.52;;;;;;;;;;4999399;28;20409;-66
2023/03/23 02:20:05;;;;;;;0.40;0.40;;;;;;;;;;5001102;28;20053;-64
2023/03/23 02:22:48;;;;;;;0.85;0.63;;;;;;;;;;4995411;28;20046;-66
2023/03/23 02:25:33;;;;;;;2.15;0.75;;;;;;;;;;4997888;28;20050;-66
2023/03/23 02:28:13;;;;;;;1.20;0.85;;;;;;;;;;4997819;28;20180;-66
2023/03/23 02:30:48;;;;;;;0.93;0.52;;;;;;;;;;4995840;28;20050;-65
2023/03/23 02:33:29;;;;;;;0.47;0.47;;;;;;;;;;4995607;28;20056;-66
2023/03/23 02:35:58;;;;;;;1.08;0.40;;;;;;;;;;4995234;28;20056;-67
2023/03/23 02:38:29;;;;;;;0.95;0.63;;;;;;;;;;4999357;28;20053;-65
2023/03/23 02:40:57;;;;;;;1.02;0.93;;;;;;;;;;4982098;28;20054;-64
2023/03/23 02:43:27;;;;;;;2.05;0.68;;;;;;;;;;4999004;28;20061;-67
2023/03/23 02:45:55;;;;;;;1.05;0.88;;;;;;;;;;4998542;28;20062;-65
2023/03/23 02:48:25;;;;;;;1.15;0.40;;;;;;;;;;4998750;28;20133;-66
2023/03/23 02:50:54;;;;;;;0.52;0.52;;;;;;;;;;4996059;28;20053;-67
2023/03/23 02:53:24;;;;;;;0.57;0.45;;;;;;;;;;5000158;28;20073;-66
2023/03/23 02:55:52;;;;;;;1.35;0.30;;;;;;;;;;4998092;28;20057;-66
2023/03/23 02:58:20;;;;;;;0.95;0.80;;;;;;;;;;4999504;28;20064;-67
2023/03/23 03:00:49;;;;;;;1.35;0.68;;;;;;;;;;4996135;28;20050;-67
2023/03/23 03:03:18;;;;;;;0.40;0.30;;;;;;;;;;4999322;28;20060;-65
2023/03/23 03:05:51;;;;;;;0.60;0.60;;;;;;;;;;5001144;28;20065;-64
2023/03/23 03:08:23;;;;;;;0.77;0.75;;;;;;;;;;4975969;28;20055;-66
2023/03/23 03:10:54;;;;;;;0.47;0.47;;;;;;;;;;4979490;28;20062;-66
2023/03/23 03:13:26;;;;;;;0.93;0.40;;;;;;;;;;4980455;28;20088;-66
2023/03/23 03:15:57;;;;;;;1.42;0.52;;;;;;;;;;4981749;28;20117;-66
2023/03/23 03:18:26;;;;;;;1.70;0.63;;;;;;;;;;4981513;28;20054;-66
2023/03/23 03:20:56;;;;;;;0.63;0.60;;;;;;;;;;4980045;28;21253;-66
2023/03/23 03:23:24;;;;;;;0.40;0.40;;;;;;;;;;4980790;28;20051;-64
2023/03/23 03:25:53;;;;;;;0.90;0.57;;;;;;;;;;4982092;28;20169;-66
2023/03/23 03:28:21;;;;;;;3.08;0.70;;;;;;;;;;4997955;28;20057;-66
2023/03/23 03:30:49;;;;;;;0.65;0.40;;;;;;;;;;4997545;28;20482;-67
2023/03/23 03:33:17;;;;;;;0.90;0.55;;;;;;;;;;4997569;28;20058;-65
2023/03/23 03:35:45;;;;;;;1.05;0.77;;;;;;;;;;5003369;28;20648;-66
2023/03/23 03:38:14;;;;;;;1.77;0.40;;;;;;;;;;4999473;28;20127;-65
2023/03/23 03:40:41;;;;;;;0.40;0.40;;;;;;;;;;4998797;28;20430;-66
2023/03/23 03:43:08;;;;;;;0.40;0.40;;;;;;;;;;5001194;28;20050;-65
2023/03/23 03:45:36;;;;;;;0.80;0.55;;;;;;;;;;5002414;28;20052;-65
2023/03/23 03:48:03;;;;;;;0.40;0.40;;;;;;;;;;4985164;28;20058;-66
2023/03/23 03:50:30;;;;;;;1.00;0.77;;;;;;;;;;4978346;28;20054;-65
2023/03/23 03:52:58;;;;;;;0.55;0.55;;;;;;;;;;4982386;28;20530;-65
2023/03/23 03:55:28;;;;;;;1.38;0.50;;;;;;;;;;4983211;28;20082;-65
2023/03/23 03:57:55;;;;;;;1.15;0.50;;;;;;;;;;4963932;28;20058;-66
2023/03/23 04:00:23;;;;;;;1.45;0.73;;;;;;;;;;4978143;28;20046;-66
2023/03/23 04:02:54;;;;;;;1.23;0.70;;;;;;;;;;4971794;28;20053;-66
2023/03/23 04:05:22;;;;;;;1.85;0.88;;;;;;;;;;4979984;28;20475;-67
2023/03/23 04:07:51;;;;;;;0.98;0.52;;;;;;;;;;5009439;28;20133;-66
2023/03/23 04:10:19;;;;;;;0.45;0.45;;;;;;;;;;5020311;28;20591;-66
2023/03/23 04:12:48;;;;;;;2.92;0.55;;;;;;;;;;5020572;28;20049;-66
2023/03/23 04:15:15;;;;;;;1.73;0.40;;;;;;;;;;5020677;28;20057;-66
2023/03/23 04:17:42;;;;;;;2.47;1.08;;;;;;;;;;5014524;28;20045;-65
2023/03/23 04:20:15;;;;;;;1.40;0.95;;;;;;;;;;5020891;28;20069;-66
2023/03/23 04:22:43;;;;;;;0.65;0.38;;;;;;;;;;5018067;28;20499;-66
2023/03/23 04:25:12;;;;;;;1.27;0.50;;;;;;;;;;5019477;28;20049;-65
2023/03/23 04:27:43;;;;;;;0.82;0.47;;;;;;;;;;5018601;28;20049;-65
2023/03/23 04:30:12;;;;;;;0.95;0.52;;;;;;;;;;5017401;28;20528;-65
2023/03/23 04:32:41;;;;;;;1.05;0.40;;;;;;;;;;5018712;28;20061;-66
2023/03/23 04:35:10;;;;;;;1.23;0.80;;;;;;;;;;5021473;28;20050;-67
2023/03/23 04:37:38;;;;;;;0.47;0.43;;;;;;;;;;5018940;28;20045;-65
2023/03/23 04:40:11;;;;;;;2.95;0.70;;;;;;;;;;5004739;28;20449;-65
2023/03/23 04:42:38;;;;;;;2.00;1.05;;;;;;;;;;5019058;28;20053;-66
2023/03/23 04:45:06;;;;;;;0.88;0.50;;;;;;;;;;5021156;28;20049;-66
2023/03/23 04:47:40;;;;;;;2.97;0.50;;;;;;;;;;5020202;28;20052;-66
2023/03/23 04:50:09;;;;;;;1.58;0.43;;;;;;;;;;5017861;28;20069;-65
2023/03/23 04:52:37;;;;;;;1.92;0.70;;;;;;;;;;5020315;28;20049;-65
2023/03/23 04:55:06;;;;;;;1.83;0.50;;;;;;;;;;5021135;28;20057;-65
2023/03/23 04:57:33;;;;;;;0.90;0.60;;;;;;;;;;5019530;28;20095;-66
2023/03/23 05:00:01;;;;;;;1.13;0.57;;;;;;;;;;5019401;28;20054;-66
2023/03/23 05:02:30;;;;;;;0.57;0.40;;;;;;;;;;5018147;28;20049;-66
2023/03/23 05:04:59;;;;;;;0.85;0.45;;;;;;;;;;5017301;28;20588;-66
2023/03/23 05:07:26;;;;;;;2.15;0.73;;;;;;;;;;5019237;28;20046;-65
2023/03/23 05:09:53;;;;;;;0.30;0.30;;;;;;;;;;5018487;28;20719;-66
2023/03/23 05:12:20;;;;;;;0.68;0.43;;;;;;;;;;5017890;28;20052;-66
2023/03/23 05:14:48;;;;;;;1.27;0.63;;;;;;;;;;5016244;28;20394;-66
2023/03/23 05:17:16;;;;;;;1.27;0.47;;;;;;;;;;5016394;28;20095;-66
2023/03/23 05:19:47;;;;;;;1.58;0.32;;;;;;;;;;5019323;28;20057;-66
2023/03/23 05:22:15;;;;;;;0.75;0.50;;;;;;;;;;5019432;28;20073;-67
2023/03/23 05:24:43;;;;;;;0.98;0.63;;;;;;;;;;5020224;28;20071;-66
2023/03/23 05:27:10;;;;;;;0.57;0.47;;;;;;;;;;5020700;28;20494;-65
2023/03/23 05:29:40;;;;;;;1.58;0.50;;;;;;;;;;5018583;28;20135;-66
2023/03/23 05:32:08;;;;;;;0.30;0.30;;;;;;;;;;5016926;28;20060;-66
2023/03/23 05:34:36;;;;;;;0.47;0.40;;;;;;;;;;5016237;28;20050;-66
2023/03/23 05:37:04;;;;;;;1.45;0.50;;;;;;;;;;5012912;28;20049;-66
2023/03/23 05:39:34;;;;;;;1.05;0.28;;;;;;;;;;5014926;28;20124;-65
2023/03/23 05:42:01;;;;;;;1.83;0.65;;;;;;;;;;5020045;28;20457;-66
2023/03/23 05:44:29;;;;;;;11.40;0.68;;;;;;;;;;5014535;28;20524;-65
2023/03/23 05:46:56;;;;;;;0.30;0.30;;;;;;;;;;5013307;28;20406;-67
2023/03/23 05:49:24;;;;;;;2.60;0.68;;;;;;;;;;5018537;28;20446;-65
2023/03/23 05:51:51;;;;;;;0.82;0.47;;;;;;;;;;5015967;28;20487;-65
2023/03/23 05:54:19;;;;;;;1.15;0.65;;;;;;;;;;5014932;28;20045;-66
2023/03/23 05:56:48;;;;;;;2.30;1.10;;;;;;;;;;5016779;28;20049;-66
2023/03/23 05:59:16;;;;;;;0.65;0.35;;;;;;;;;;5021548;28;20076;-66
2023/03/23 06:01:43;;;;;;;5.15;1.15;;;;;;;;;;5019353;28;20058;-66
2023/03/23 06:04:11;;;;;;;1.00;0.47;;;;;;;;;;5017716;28;20073;-66
2023/03/23 06:06:39;;;;;;;1.13;0.60;;;;;;;;;;5013818;28;20073;-65
2023/03/23 06:09:06;;;;;;;0.57;0.57;;;;;;;;;;5018538;28;20071;-66
2023/03/23 06:11:34;;;;;;;0.43;0.43;;;;;;;;;;5017698;28;20128;-65
2023/03/23 06:14:02;;;;;;;0.47;0.47;;;;;;;;;;5017149;28;20050;-65
2023/03/23 06:16:30;;;;;;;3.22;0.55;;;;;;;;;;5015687;28;20056;-65
2023/03/23 06:18:57;;;;;;;0.40;0.40;;;;;;;;;;5018562;28;20061;-65
2023/03/23 06:21:25;;;;;;;3.88;0.65;;;;;;;;;;5016073;28;20053;-65
2023/03/23 06:23:52;;;;;;;0.50;0.43;;;;;;;;;;5018756;28;20050;-65
2023/03/23 06:26:20;;;;;;;0.50;0.50;;;;;;;;;;5014459;28;20045;-64
2023/03/23 06:28:48;;;;;;;0.60;0.25;;;;;;;;;;5017251;28;20345;-64
2023/03/23 06:31:20;;;;;;;1.98;0.65;;;;;;;;;;5016888;28;20042;-65
2023/03/23 06:33:47;;;;;;;0.22;0.22;;;;;;;;;;5017602;28;20078;-64
2023/03/23 06:36:15;;;;;;;1.45;0.60;;;;;;;;;;5015115;28;20049;-65
2023/03/23 06:38:42;;;;;;;0.95;0.95;;;;;;;;;;5017029;28;20144;-65
2023/03/23 06:41:09;;;;;;;1.17;0.57;;;;;;;;;;5018887;28;20366;-64
2023/03/23 06:43:39;;;;;;;0.98;0.68;;;;;;;;;;5017942;28;20080;-65
2023/03/23 06:46:06;;;;;;;1.05;0.73;;;;;;;;;;5005814;28;20082;-65
2023/03/23 06:48:35;;;;;;;0.90;0.50;;;;;;;;;;5024537;28;20136;-65
2023/03/23 06:51:02;;;;;;;1.58;0.70;;;;;;;;;;5024063;28;20049;-64
2023/03/23 06:53:30;;;;;;;2.08;0.47;;;;;;;;;;5024653;28;20502;-65
2023/03/23 06:55:57;;;;;;;2.65;0.47;;;;;;;;;;5020654;28;20132;-65
2023/03/23 06:58:25;;;;;;;0.43;0.30;;;;;;;;;;5019686;28;20045;-65
2023/03/23 07:00:56;;;;;;;1.23;0.60;;;;;;;;;;5021978;28;20049;-64
2023/03/23 07:03:23;;;;;;;0.43;0.43;;;;;;;;;;5023079;28;20053;-64
2023/03/23 07:05:52;;;;;;;0.93;0.40;;;;;;;;;;5021884;28;20061;-66
2023/03/23 07:08:19;;;;;;;0.50;0.50;;;;;;;;;;5020219;28;20060;-65
2023/03/23 07:10:46;;;;;;;1.58;0.52;;;;;;;;;;5023294;28;20052;-64
2023/03/23 07:13:14;;;;;;;1.08;0.70;;;;;;;;;;5020538;28;20046;-65
2023/03/23 07:15:42;;;;;;;0.60;0.60;;;;;;;;;;5008122;28;20053;-65
2023/03/23 07:18:09;;;;;;;1.05;0.57;;;;;;;;;;5021566;28;20567;-65
2023/03/23 07:20:37;;;;;;;1.75;0.77;;;;;;;;;;5021229;28;20064;-65
2023/03/23 07:23:06;;;;;;;0.70;0.52;;;;;;;;;;5021927;28;20057;-65
2023/03/23 07:25:33;;;;;;;3.13;0.90;;;;;;;;;;5023637;28;20057;-65
2023/03/23 07:28:01;;;;;;;0.98;0.55;;;;;;;;;;5018003;28;20053;-65
2023/03/23 07:30:29;;;;;;;2.53;0.60;;;;;;;;;;5024376;28;20502;-65
2023/03/23 07:32:56;;;;;;;0.70;0.60;;;;;;;;;;5024208;28;20057;-65
2023/03/23 07:35:23;;;;;;;3.45;0.60;;;;;;;;;;5022189;28;20604;-64
2023/03/23 07:37:51;;;;;;;2.50;0.70;;;;;;;;;;5022047;28;20059;-65
2023/03/23 07:40:20;;;;;;;0.52;0.47;;;;;;;;;;5023135;28;20426;-65
2023/03/23 07:42:52;;;;;;;2.03;0.95;;;;;;;;;;5023537;28;20045;-65
2023/03/23 07:45:20;;;;;;;6.10;0.80;;;;;;;;;;5020860;28;20081;-65
2023/03/23 07:47:47;;;;;;;0.40;0.40;;;;;;;;;;5016894;28;20402;-66
2023/03/23 07:50:14;;;;;;;0.85;0.50;;;;;;;;;;5004885;28;20432;-65
2023/03/23 07:52:42;;;;;;;5.30;0.50;;;;;;;;;;5017914;28;20050;-66
2023/03/23 07:55:11;;;;;;;0.63;0.50;;;;;;;;;;5017948;28;20590;-66
2023/03/23 07:57:40;;;;;;;5.15;0.90;;;;;;;;;;5017687;28;20546;-65
2023/03/23 08:00:11;;;;;;;0.85;0.47;;;;;;;;;;5021563;28;20064;-65
2023/03/23 08:02:39;;;;;;;0.40;0.40;;;;;;;;;;5021998;28;20049;-65
2023/03/23 08:05:08;;;;;;;0.63;0.60;;;;;;;;;;5019324;28;20596;-65
2023/03/23 08:07:35;;;;;;;1.33;0.63;;;;;;;;;;5021494;28;20072;-65
2023/03/23 08:10:03;;;;;;;1.00;0.63;;;;;;;;;;5022172;28;20061;-66
2023/03/23 08:12:30;;;;;;;1.27;1.05;;;;;;;;;;5017237;28;20140;-65
2023/03/23 08:14:59;;;;;;;1.55;0.50;;;;;;;;;;5016552;28;20049;-65
2023/03/23 08:17:26;;;;;;;0.50;0.40;;;;;;;;;;5018116;28;20108;-65
2023/03/23 08:19:54;;;;;;;0.43;0.40;;;;;;;;;;5022039;28;20112;-65
2023/03/23 08:22:22;;;;;;;2.85;1.48;;;;;;;;;;5018718;28;20048;-65
2023/03/23 08:24:49;;;;;;;2.72;0.65;;;;;;;;;;5021976;28;20473;-65
2023/03/23 08:27:16;;;;;;;0.20;0.20;;;;;;;;;;5020425;28;20100;-65
2023/03/23 08:29:45;;;;;;;1.00;0.52;;;;;;;;;;5019466;28;20085;-65
2023/03/23 08:32:14;;;;;;;0.80;0.63;;;;;;;;;;5021704;28;20050;-64
2023/03/23 08:34:42;;;;;;;2.42;0.70;;;;;;;;;;5019629;28;20498;-65
2023/03/23 08:37:10;;;;;;;4.15;0.50;;;;;;;;;;5020794;28;20054;-65
2023/03/23 08:39:38;;;;;;;0.95;0.68;;;;;;;;;;5022255;28;20057;-65
2023/03/23 08:42:05;;;;;;;0.70;0.70;;;;;;;;;;5020057;28;20049;-65
2023/03/23 08:44:32;;;;;;;2.85;0.40;;;;;;;;;;5021498;28;20064;-65
2023/03/23 08:47:00;;;;;;;1.20;0.60;;;;;;;;;;5019378;28;20076;-65
2023/03/23 08:49:29;;;;;;;1.73;0.50;;;;;;;;;;5017146;28;20046;-65
2023/03/23 08:51:56;;;;;;;0.90;0.38;;;;;;;;;;5015485;28;20076;-65
2023/03/23 08:54:23;;;;;;;0.73;0.60;;;;;;;;;;5002482;28;20045;-65
2023/03/23 08:56:51;;;;;;;0.30;0.30;;;;;;;;;;5022172;28;20049;-65
2023/03/23 08:59:18;;;;;;;2.17;0.80;;;;;;;;;;5020324;28;20526;-65
2023/03/23 09:01:46;;;;;;;0.75;0.47;;;;;;;;;;5020805;28;20064;-65
2023/03/23 09:04:14;;;;;;;1.75;0.50;;;;;;;;;;5022169;28;20510;-65
2023/03/23 09:06:42;;;;;;;6.55;0.70;;;;;;;;;;5021971;28;20505;-66
2023/03/23 09:09:10;;;;;;;0.85;0.80;;;;;;;;;;5018951;28;21440;-65
2023/03/23 09:11:37;;;;;;;1.10;0.50;;;;;;;;;;5018071;28;20140;-65
2023/03/23 09:14:06;;;;;;;0.50;0.47;;;;;;;;;;5019160;28;20046;-65
2023/03/23 09:16:33;;;;;;;0.70;0.60;;;;;;;;;;5017904;28;20049;-65
2023/03/23 09:19:01;;;;;;;0.35;0.35;;;;;;;;;;5021655;28;20462;-65
2023/03/23 09:21:29;;;;;;;1.73;0.47;;;;;;;;;;5019186;28;20132;-65
2023/03/23 09:23:59;;;;;;;0.82;0.50;;;;;;;;;;5016751;28;20080;-65
2023/03/23 09:26:26;;;;;;;0.40;0.40;;;;;;;;;;5003180;28;20137;-65
2023/03/23 09:28:56;;;;;;;1.80;0.50;;;;;;;;;;5022464;28;20486;-64
2023/03/23 09:31:26;;;;;;;0.75;0.68;;;;;;;;;;5016743;28;20139;-65
2023/03/23 09:33:55;;;;;;;2.97;0.93;;;;;;;;;;5019040;28;20104;-65
2023/03/23 09:36:23;;;;;;;0.55;0.50;;;;;;;;;;5001420;28;20121;-65
2023/03/23 09:38:52;;;;;;;2.45;0.73;;;;;;;;;;5018652;28;20490;-65
2023/03/23 09:41:26;;;;;;;2.17;0.57;;;;;;;;;;5020109;28;20053;-65
2023/03/23 09:44:03;;;;;;;0.73;0.60;;;;;;;;;;5002970;28;20143;-65
2023/03/23 09:46:40;;;;;;;0.82;0.63;;;;;;;;;;5002885;28;20466;-66
2023/03/23 09:49:11;;;;;;;0.70;0.43;;;;;;;;;;5021232;28;20061;-65
2023/03/23 09:51:42;;;;;;;2.90;0.60;;;;;;;;;;5018571;28;20057;-65
2023/03/23 09:54:13;;;;;;;1.27;0.50;;;;;;;;;;5014987;28;20052;-66
2023/03/23 09:56:41;;;;;;;1.40;0.98;;;;;;;;;;5019284;28;20065;-65
2023/03/23 09:59:15;;;;;;;1.85;0.40;;;;;;;;;;5016028;28;20130;-65
2023/03/23 10:01:45;;;;;;;0.30;0.30;;;;;;;;;;5017897;28;20058;-65
2023/03/23 10:04:16;;;;;;;0.98;0.47;;;;;;;;;;5019580;28;20055;-65
2023/03/23 10:06:44;;;;;;;1.00;0.60;;;;;;;;;;5019961;28;20053;-65
2023/03/23 10:09:15;;;;;;;1.25;0.60;;;;;;;;;;5018500;28;20054;-66
2023/03/23 10:11:50;;;;;;;0.55;0.55;;;;;;;;;;5017078;28;20054;-66
2023/03/23 10:14:24;;;;;;;2.30;0.90;;;;;;;;;;5018501;28;20520;-65
2023/03/23 10:17:00;;;;;;;0.82;0.45;;;;;;;;;;5018137;28;20060;-65
2023/03/23 10:19:31;;;;;;;0.93;0.60;;;;;;;;;;5019647;28;20425;-65
2023/03/23 10:22:03;;;;;;;1.13;0.60;;;;;;;;;;5017053;28;20505;-65
2023/03/23 10:24:35;;;;;;;4.63;0.85;;;;;;;;;;5016601;28;20103;-65
2023/03/23 10:27:07;;;;;;;0.82;0.50;;;;;;;;;;5013708;28;20058;-65
2023/03/23 10:29:38;;;;;;;0.65;0.50;;;;;;;;;;5015337;28;20054;-65
2023/03/23 10:32:10;;;;;;;1.55;0.85;;;;;;;;;;5021551;28;20080;-65
2023/03/23 10:34:43;;;;;;;0.63;0.60;;;;;;;;;;5019341;28;20053;-65
2023/03/23 10:37:13;;;;;;;0.95;0.65;;;;;;;;;;5015013;28;20057;-65
2023/03/23 10:39:45;;;;;;;1.48;0.73;;;;;;;;;;5016590;28;20494;-65
2023/03/23 10:42:14;;;;;;;3.47;1.42;;;;;;;;;;5017250;28;20131;-64
2023/03/23 10:44:41;;;;;;;0.73;0.50;;;;;;;;;;5017640;28;20061;-65
2023/03/23 10:47:10;;;;;;;0.82;0.43;;;;;;;;;;5018022;28;20081;-65
2023/03/23 10:49:39;;;;;;;0.45;0.45;;;;;;;;;;5017701;28;20067;-65
2023/03/23 10:52:11;;;;;;;1.77;0.57;;;;;;;;;;5016816;28;20223;-65
2023/03/23 10:54:40;;;;;;;4.40;1.05;;;;;;;;;;5015563;28;20073;-65
2023/03/23 10:57:21;;;;;;;9.93;1.08;;;;;;;;;;5018596;28;20410;-65
2023/03/23 10:59:48;;;;;;;2.35;0.68;;;;;;;;;;5017724;28;20053;-66
2023/03/23 11:02:18;;;;;;;0.32;0.32;;;;;;;;;;5019433;28;20136;-67
2023/03/23 11:04:56;;;;;;;0.95;0.40;;;;;;;;;;5022187;28;20678;-66
2023/03/23 11:07:30;;;;;;;3.63;0.70;;;;;;;;;;5017832;28;20046;-66
2023/03/23 11:09:59;;;;;;;2.03;1.00;;;;;;;;;;5000751;28;20505;-65
2023/03/23 11:12:28;;;;;;;3.08;1.20;;;;;;;;;;5020792;28;20062;-65
2023/03/23 11:15:05;;;;;;;1.50;0.82;;;;;;;;;;5018965;28;20406;-66
2023/03/23 11:17:32;;;;;;;1.02;0.57;;;;;;;;;;5018632;28;20544;-65
2023/03/23 11:20:00;;;;;;;2.03;0.60;;;;;;;;;;5020118;28;20056;-65
2023/03/23 11:22:28;;;;;;;0.82;0.47;;;;;;;;;;5001684;28;20515;-65
2023/03/23 11:24:57;;;;;;;0.80;0.60;;;;;;;;;;5016983;28;20174;-66
2023/03/23 11:27:26;;;;;;;1.08;0.60;;;;;;;;;;5018953;28;20052;-65
2023/03/23 11:29:56;;;;;;;1.02;0.80;;;;;;;;;;5001253;28;20057;-65
2023/03/23 11:32:26;;;;;;;0.68;0.52;;;;;;;;;;5020897;28;20049;-65
2023/03/23 11:34:55;;;;;;;0.73;0.60;;;;;;;;;;5023568;28;20037;-65
2023/03/23 11:37:27;;;;;;;0.55;0.35;;;;;;;;;;5006284;28;20069;-65
2023/03/23 11:39:56;;;;;;;2.97;1.05;;;;;;;;;;5021856;28;20061;-66
2023/03/23 11:42:27;;;;;;;0.52;0.52;;;;;;;;;;5022232;28;20049;-65
2023/03/23 11:44:56;;;;;;;1.33;0.60;;;;;;;;;;5021589;28;20056;-66
2023/03/23 11:47:25;;;;;;;1.48;0.60;;;;;;;;;;4998376;28;20505;-66
2023/03/23 11:49:55;;;;;;;2.13;0.88;;;;;;;;;;5017215;28;20053;-65
2023/03/23 11:52:25;;;;;;;1.02;0.55;;;;;;;;;;5018277;28;20139;-65
2023/03/23 11:54:56;;;;;;;1.50;0.70;;;;;;;;;;5020016;28;20056;-65
2023/03/23 11:57:24;;;;;;;1.75;0.77;;;;;;;;;;5014179;28;20380;-65
2023/03/23 11:59:51;;;;;;;0.70;0.63;;;;;;;;;;5013638;28;20530;-66
2023/03/23 12:02:27;;;;;;;2.63;0.80;;;;;;;;;;5020098;28;20054;-66
2023/03/23 12:05:10;;;;;;;2.55;0.88;;;;;;;;;;5023006;28;20056;-64
2023/03/23 12:07:42;;;;;;;0.35;0.32;;;;;;;;;;5018291;28;20483;-65
2023/03/23 12:10:19;;;;;;;1.08;0.47;;;;;;;;;;5002284;28;20449;-66
2023/03/23 12:12:49;;;;;;;1.55;0.50;;;;;;;;;;5021278;28;20132;-65
2023/03/23 12:15:21;;;;;;;2.63;1.08;;;;;;;;;;5005786;28;20053;-64
2023/03/23 12:17:53;;;;;;;1.50;1.23;;;;;;;;;;5005562;28;20538;-66
2023/03/23 12:20:28;;;;;;;1.92;0.80;;;;;;;;;;5022357;28;20399;-65
2023/03/23 12:23:05;;;;;;;2.38;1.20;;;;;;;;;;5020839;28;20049;-65
2023/03/23 12:25:52;;;;;;;1.05;0.80;;;;;;;;;;5020470;28;20383;-66
2023/03/23 12:28:22;;;;;;;2.30;0.70;;;;;;;;;;5019502;28;20046;-66
2023/03/23 12:30:53;;;;;;;0.98;0.70;;;;;;;;;;5022738;28;20053;-65
2023/03/23 12:33:35;;;;;;;2.00;0.75;;;;;;;;;;5019629;28;20052;-66
2023/03/23 12:36:11;;;;;;;1.55;0.73;;;;;;;;;;5022028;28;20096;-66
2023/03/23 12:38:53;;;;;;;1.48;0.60;;;;;;;;;;5024016;28;20045;-66
2023/03/23 12:41:23;;;;;;;2.78;0.73;;;;;;;;;;5003102;28;20057;-66
2023/03/23 12:43:54;;;;;;;2.50;1.08;;;;;;;;;;5013473;28;20140;-65
2023/03/23 12:46:28;;;;;;;2.03;0.68;;;;;;;;;;5019624;28;20057;-66
2023/03/23 12:48:59;;;;;;;1.10;0.60;;;;;;;;;;5020907;28;20140;-66
2023/03/23 12:51:32;;;;;;;2.05;0.77;;;;;;;;;;5021952;28;20048;-66
2023/03/23 12:54:03;;;;;;;1.42;0.90;;;;;;;;;;5020904;28;20077;-66
2023/03/23 12:56:33;;;;;;;3.13;1.45;;;;;;;;;;5016562;28;20045;-67
2023/03/23 12:59:04;;;;;;;1.05;0.80;;;;;;;;;;5021283;28;20795;-66
2023/03/23 13:01:34;;;;;;;1.15;0.68;;;;;;;;;;5017257;28;20057;-65
2023/03/23 13:04:05;;;;;;;10.38;1.08;;;;;;;;;;5016590;28;20054;-66
2023/03/23 13:06:34;;;;;;;0.60;0.50;;;;;;;;;;5018902;28;20125;-66
2023/03/23 13:09:04;;;;;;;0.98;0.50;;;;;;;;;;5019454;28;20391;-65
2023/03/23 13:11:34;;;;;;;2.00;0.98;;;;;;;;;;5005153;28;21340;-66
2023/03/23 13:14:09;;;;;;;2.10;0.73;;;;;;;;;;5020761;28;20091;-67
2023/03/23 13:16:40;;;;;;;1.85;0.68;;;;;;;;;;5019273;28;20054;-66
2023/03/23 13:19:13;;;;;;;3.60;0.68;;;;;;;;;;5022063;28;20045;-66
2023/03/23 13:21:44;;;;;;;1.27;0.55;;;;;;;;;;5020341;28;20533;-65
2023/03/23 13:24:14;;;;;;;0.88;0.55;;;;;;;;;;5003793;28;20088;-66
2023/03/23 13:26:43;;;;;;;1.95;0.57;;;;;;;;;;5020705;28;20137;-65
2023/03/23 13:29:14;;;;;;;0.52;0.50;;;;;;;;;;5021433;28;20056;-67
2023/03/23 13:31:42;;;;;;;2.25;0.80;;;;;;;;;;5015608;28;20129;-66
2023/03/23 13:34:18;;;;;;;1.20;0.70;;;;;;;;;;5020292;28;20042;-66
2023/03/23 13:36:53;;;;;;;1.67;0.52;;;;;;;;;;5013851;28;20052;-65
2023/03/23 13:39:23;;;;;;;0.52;0.50;;;;;;;;;;5020565;28;20045;-66
2023/03/23 13:42:00;;;;;;;0.45;0.43;;;;;;;;;;5011713;28;20122;-66
2023/03/23 13:44:28;;;;;;;1.25;0.47;;;;;;;;;;5019368;28;20072;-66
2023/03/23 13:46:56;;;;;;;0.50;0.32;;;;;;;;;;5019583;28;20059;-64
2023/03/23 13:49:27;;;;;;;0.40;0.40;;;;;;;;;;5002511;28;20452;-66
2023/03/23 13:52:00;;;;;;;0.95;0.60;;;;;;;;;;5017646;28;20125;-66
2023/03/23 13:54:32;;;;;;;1.17;0.50;;;;;;;;;;5018667;28;20053;-65
2023/03/23 13:57:00;;;;;;;0.77;0.43;;;;;;;;;;5017474;28;21155;-66
2023/03/23 13:59:33;;;;;;;2.90;0.50;;;;;;;;;;5014831;28;20446;-66
2023/03/23 14:02:15;;;;;;;1.23;0.50;;;;;;;;;;5017054;28;20099;-66
2023/03/23 14:04:47;;;;;;;1.02;0.40;;;;;;;;;;5015576;28;20041;-66
2023/03/23 14:07:18;;;;;;;1.20;0.43;;;;;;;;;;5015313;28;20037;-65
2023/03/23 14:09:47;;;;;;;1.08;0.50;;;;;;;;;;5016355;28;20049;-65
2023/03/23 14:12:16;;;;;;;2.17;0.52;;;;;;;;;;5002461;28;20479;-66
2023/03/23 14:14:45;;;;;;;0.98;0.50;;;;;;;;;;5020498;28;20056;-66
2023/03/23 14:17:14;;;;;;;1.60;0.70;;;;;;;;;;5014197;28;20050;-66
2023/03/23 14:19:44;;;;;;;0.45;0.40;;;;;;;;;;5017942;28;20057;-66
2023/03/23 14:22:19;;;;;;;1.25;0.50;;;;;;;;;;5018769;28;20045;-66
2023/03/23 14:24:46;;;;;;;0.63;0.43;;;;;;;;;;5019222;28;20049;-66
2023/03/23 14:27:15;;;;;;;0.85;0.60;;;;;;;;;;5019364;28;20486;-65
2023/03/23 14:29:42;;;;;;;0.93;0.43;;;;;;;;;;5018585;28;20049;-65
2023/03/23 14:32:13;;;;;;;0.30;0.30;;;;;;;;;;5016568;28;20442;-64
2023/03/23 14:34:41;;;;;;;0.63;0.40;;;;;;;;;;5018524;28;20104;-65
2023/03/23 14:37:13;;;;;;;0.57;0.45;;;;;;;;;;5019002;28;20042;-66
2023/03/23 14:39:41;;;;;;;0.88;0.38;;;;;;;;;;5017991;28;20084;-66
2023/03/23 14:42:12;;;;;;;1.08;0.32;;;;;;;;;;5021217;28;20057;-65
2023/03/23 14:44:41;;;;;;;1.27;0.63;;;;;;;;;;5017544;28;20107;-66
2023/03/23 14:47:11;;;;;;;2.30;0.50;;;;;;;;;;5014401;28;20048;-66
2023/03/23 14:49:39;;;;;;;3.63;0.45;;;;;;;;;;5015706;28;20049;-65
2023/03/23 14:52:11;;;;;;;0.88;0.50;;;;;;;;;;5015218;28;20111;-65
2023/03/23 14:54:41;;;;;;;1.23;0.60;;;;;;;;;;5014417;28;20339;-65
2023/03/23 14:57:13;;;;;;;0.50;0.50;;;;;;;;;;5014836;28;20160;-66